Time;durP1;ratioP1;P1;durP2;ratioP2;P2;SDS_P1;SDS_P2;PMS_P1;PMS_P2;Temp;Humidity;BMP_temperature;BMP_pressure;BME280_temperature;BME280_humidity;BME280_pressure;Samples;Min_cycle;Max_cycle;Signal;HPM_P1;HPM_P2
2022/09/03 00:00:24;;;;;;;5.00;2.20;;;;;;;10.16;70.17;98897.05;220019;1274;24687;-76
2022/09/03 00:06:33;;;;;;;4.00;2.60;;;;;;;10.05;70.32;98898.28;220641;1273;24436;-73
2022/09/03 00:19:43;;;;;;;4.20;2.30;;;;;;;9.90;71.02;98891.98;220408;1274;22688;-75
2022/09/03 00:26:48;;;;;;;3.40;2.20;;;;;;;9.85;71.12;98883.09;220753;1274;24275;-74
2022/09/03 00:33:44;;;;;;;4.30;2.20;;;;;;;9.81;71.24;98884.52;220154;1274;22557;-73
2022/09/03 00:46:31;;;;;;;;;;;;;;;;;;;;;
2022/09/03 00:53:21;;;;;;;3.60;2.10;;;;;;;9.66;71.72;98861.30;220301;1273;25379;-74
2022/09/03 01:06:43;;;;;;;6.00;2.40;;;;;;;9.60;72.12;98863.91;220393;1273;22624;-74
2022/09/03 01:20:10;;;;;;;2.90;1.60;;;;;;;9.52;72.09;98873.65;220546;1274;22532;-74
2022/09/03 01:26:13;;;;;;;;;;;;;;;;;;;;;
2022/09/03 01:32:54;;;;;;;7.90;2.20;;;;;;;9.41;72.38;98874.80;220750;1274;25407;-74
2022/09/03 01:39:24;;;;;;;;;;;;;;;;;;;;;
2022/09/03 01:46:12;;;;;;;;;;;;;;;;;;;;;
2022/09/03 01:52:55;;;;;;;3.40;2.10;;;;;;;9.10;73.12;98879.80;220495;1274;25546;-73
2022/09/03 01:59:18;;;;;;;4.40;2.20;;;;;;;9.00;73.47;98877.61;220541;1274;22550;-74
2022/09/03 02:05:07;;;;;;;4.90;2.30;;;;;;;8.92;73.69;98876.42;220168;1274;24331;-73
2022/09/03 02:18:50;;;;;;;2.70;1.80;;;;;;;8.77;74.18;98873.70;220435;1273;22691;-74
2022/09/03 02:24:30;;;;;;;5.60;1.80;;;;;;;8.71;74.20;98874.48;220655;1274;22617;-74
2022/09/03 02:30:50;;;;;;;;;;;;;;;;;;;;;
2022/09/03 02:37:19;;;;;;;3.70;1.70;;;;;;;8.59;74.40;98881.04;220540;1271;22616;-73
2022/09/03 02:43:16;;;;;;;2.50;1.40;;;;;;;8.52;74.50;98879.89;220566;1274;24328;-73
2022/09/03 02:49:30;;;;;;;;;;;;;;;;;;;;;
2022/09/03 02:55:40;;;;;;;2.40;1.40;;;;;;;8.41;75.05;98885.92;219963;1274;22819;-74
2022/09/03 03:01:42;;;;;;;;;;;;;;;;;;;;;
2022/09/03 03:08:13;;;;;;;2.30;1.50;;;;;;;8.31;75.36;98883.98;220791;1274;22639;-74
2022/09/03 03:14:21;;;;;;;5.00;2.00;;;;;;;8.24;75.47;98877.74;220377;1273;22554;-73
2022/09/03 03:20:39;;;;;;;2.70;1.60;;;;;;;8.18;75.57;98880.69;219984;1274;24291;-73
2022/09/03 03:27:40;;;;;;;4.10;1.70;;;;;;;8.19;75.91;98890.98;219936;1274;22546;-74
2022/09/03 03:39:40;;;;;;;2.80;1.70;;;;;;;8.19;76.28;98876.31;220100;1274;24891;-74
2022/09/03 03:51:24;;;;;;;4.10;1.90;;;;;;;8.17;76.75;98878.81;220588;1273;22541;-74
2022/09/03 03:57:21;;;;;;;8.80;2.00;;;;;;;8.20;76.85;98878.27;220456;1274;22612;-73
2022/09/03 04:03:37;;;;;;;3.70;1.70;;;;;;;8.16;76.85;98878.48;220636;1274;23139;-74
2022/09/03 04:10:33;;;;;;;4.40;1.80;;;;;;;8.09;76.95;98877.70;220870;1273;25360;-74
2022/09/03 04:29:20;;;;;;;6.40;2.20;;;;;;;8.06;77.40;98898.09;220474;1273;22620;-73
2022/09/03 04:35:43;;;;;;;4.20;1.90;;;;;;;8.13;77.60;98896.01;220458;1273;22557;-74
2022/09/03 04:41:34;;;;;;;3.60;2.30;;;;;;;8.19;77.49;98894.23;220395;1273;24419;-74
2022/09/03 04:53:46;;;;;;;;;;;;;;;;;;;;;
2022/09/03 04:59:23;;;;;;;3.70;1.70;;;;;;;8.62;77.89;98910.23;220513;1274;25411;-74
2022/09/03 05:05:41;;;;;;;4.70;1.80;;;;;;;8.76;77.92;98911.05;220496;1271;26397;-74
2022/09/03 05:12:10;;;;;;;4.60;1.60;;;;;;;8.98;78.08;98906.79;220645;1273;22708;-74
2022/09/03 05:18:50;;;;;;;3.80;2.10;;;;;;;9.26;78.04;98912.97;220612;1273;22538;-74
2022/09/03 05:25:33;;;;;;;3.80;2.00;;;;;;;9.54;77.96;98921.55;220648;1274;25401;-73
2022/09/03 05:31:00;;;;;;;2.40;1.80;;;;;;;9.87;77.72;98919.67;220168;1273;24552;-74
2022/09/03 05:36:48;;;;;;;6.00;2.40;;;;;;;10.20;77.37;98916.02;220479;1272;22592;-74
2022/09/03 05:42:20;;;;;;;8.10;2.50;;;;;;;10.48;77.07;98917.22;220085;1273;22537;-74
2022/09/03 05:48:01;;;;;;;;;;;;;;;10.77;76.92;98923.71;220362;1273;25297;-74
2022/09/03 05:53:37;;;;;;;6.60;2.10;;;;;;;11.07;77.05;98925.06;220736;1271;25382;-73
2022/09/03 05:59:46;;;;;;;4.20;2.60;;;;;;;11.45;76.93;98923.92;199080;1272;1015796;-74
2022/09/03 06:05:02;;;;;;;7.50;2.60;;;;;;;11.80;76.06;98913.04;220436;1274;22554;-73
2022/09/03 06:10:40;;;;;;;5.00;2.00;;;;;;;12.02;75.77;98914.59;215260;1273;1005156;-73
2022/09/03 06:16:02;;;;;;;4.10;1.80;;;;;;;12.21;75.67;98918.14;220450;1273;24307;-73
2022/09/03 06:22:18;;;;;;;6.00;2.70;;;;;;;12.37;75.48;98912.06;220629;1271;23563;-74
2022/09/03 06:27:31;;;;;;;11.80;2.10;;;;;;;12.54;75.55;98909.59;220487;1273;24035;-74
2022/09/03 06:33:17;;;;;;;5.90;2.40;;;;;;;12.78;75.54;98907.48;220599;1271;22626;-75
2022/09/03 06:38:27;;;;;;;3.60;2.00;;;;;;;13.04;75.48;98906.62;220278;1273;22557;-74
2022/09/03 06:44:01;;;;;;;2.90;1.60;;;;;;;13.25;75.21;98909.95;220440;1273;24323;-74
2022/09/03 06:49:40;;;;;;;5.40;2.30;;;;;;;13.52;75.38;98917.02;221197;1273;22610;-73
2022/09/03 06:55:21;;;;;;;2.70;2.10;;;;;;;13.95;75.36;98919.72;220717;1273;24259;-73
2022/09/03 07:01:01;;;;;;;3.40;2.10;;;;;;;14.31;74.80;98922.20;221216;1273;24219;-73
2022/09/03 07:06:56;;;;;;;3.90;2.30;;;;;;;14.63;74.53;98924.98;221309;1271;22569;-73
2022/09/03 07:13:05;;;;;;;2.00;1.80;;;;;;;14.94;73.81;98928.86;221262;1270;23829;-72
2022/09/03 07:18:38;;;;;;;5.30;2.40;;;;;;;15.16;73.51;98928.71;221514;1273;22539;-72
2022/09/03 07:24:14;;;;;;;6.20;2.30;;;;;;;15.42;73.08;98920.33;221005;1271;22563;-72
2022/09/03 07:29:32;;;;;;;2.60;1.90;;;;;;;15.61;72.52;98920.52;221132;1272;22540;-74
2022/09/03 07:35:09;;;;;;;5.40;2.10;;;;;;;15.70;71.93;98922.56;220948;1271;22536;-74
2022/09/03 07:40:28;;;;;;;3.60;2.20;;;;;;;15.89;71.93;98932.67;221041;1273;23971;-73
2022/09/03 07:46:11;;;;;;;4.80;1.90;;;;;;;16.09;71.41;98944.80;221003;1272;22547;-72
2022/09/03 07:52:06;;;;;;;3.90;2.40;;;;;;;16.15;70.57;98944.11;221080;1273;22570;-73
2022/09/03 07:57:44;;;;;;;3.80;2.40;;;;;;;16.23;70.44;98936.98;220895;1271;22570;-74
2022/09/03 08:03:19;;;;;;;;;;;;;;;;;;;;;
2022/09/03 08:08:55;;;;;;;3.50;1.90;;;;;;;16.73;70.30;98935.70;221025;1273;26051;-74
2022/09/03 08:14:31;;;;;;;4.20;1.70;;;;;;;16.84;69.16;98934.73;220934;1273;22553;-74
2022/09/03 08:19:36;;;;;;;2.00;1.50;;;;;;;16.95;68.66;98940.36;220997;1273;25108;-74
2022/09/03 08:25:13;;;;;;;5.30;1.70;;;;;;;16.99;68.13;98949.02;220936;1273;24139;-75
2022/09/03 08:30:56;;;;;;;5.30;1.50;;;;;;;17.14;68.20;98947.92;220729;1273;22601;-74
2022/09/03 08:36:37;;;;;;;3.50;1.60;;;;;;;17.56;67.65;98944.67;220900;1271;23879;-74
2022/09/03 08:42:20;;;;;;;2.80;1.90;;;;;;;17.89;67.01;98940.84;221008;1274;24263;-73
2022/09/03 08:48:43;;;;;;;3.60;1.60;;;;;;;18.25;66.24;98939.14;220657;1271;24303;-75
2022/09/03 08:54:22;;;;;;;2.80;1.50;;;;;;;18.52;65.45;98941.00;220656;1273;25330;-74
2022/09/03 09:00:19;;;;;;;1.80;1.20;;;;;;;18.54;64.18;98934.25;220835;1273;23353;-73
2022/09/03 09:06:51;;;;;;;5.30;2.60;;;;;;;18.19;63.41;98933.59;220903;1271;24255;-73
2022/09/03 09:12:44;;;;;;;1.40;1.20;;;;;;;17.99;63.48;98937.96;220760;1273;23015;-74
2022/09/03 09:24:50;;;;;;;2.20;1.10;;;;;;;18.57;63.68;98937.20;220623;1273;25439;-74
2022/09/03 09:30:05;;;;;;;3.30;1.10;;;;;;;18.94;62.67;98935.43;220728;1273;22559;-74
2022/09/03 09:35:23;;;;;;;1.40;1.30;;;;;;;19.12;62.15;98928.48;220771;1273;26217;-74
2022/09/03 09:41:20;;;;;;;;;;;;;;;19.35;61.25;98935.98;220965;1273;25373;-74
2022/09/03 09:46:40;;;;;;;4.90;2.30;;;;;;;19.47;61.04;98938.73;220711;1273;22581;-73
2022/09/03 09:52:13;;;;;;;2.60;1.40;;;;;;;19.45;59.91;98949.23;220939;1271;23039;-74
2022/09/03 09:57:42;;;;;;;1.60;1.50;;;;;;;19.34;60.00;98953.41;221005;1271;22591;-75
2022/09/03 10:03:12;;;;;;;2.50;1.50;;;;;;;19.34;60.09;98960.40;220947;1273;25443;-74
2022/09/03 10:08:25;;;;;;;4.20;2.10;;;;;;;19.28;59.76;98964.17;220913;1271;25349;-73
2022/09/03 10:14:10;;;;;;;2.40;2.10;;;;;;;19.30;60.12;98956.78;220832;1272;24342;-74
2022/09/03 10:19:36;;;;;;;2.40;2.20;;;;;;;19.41;59.95;98948.10;220950;1273;22584;-74
2022/09/03 10:25:16;;;;;;;3.30;2.60;;;;;;;19.45;59.86;98949.15;220497;1275;22595;-75
2022/09/03 10:30:58;;;;;;;4.90;3.90;;;;;;;19.69;60.11;98948.38;220653;1273;24224;-74
2022/09/03 10:37:07;;;;;;;6.80;4.70;;;;;;;20.08;59.61;98945.81;217348;1276;1003349;-75
2022/09/03 10:42:36;;;;;;;2.90;2.40;;;;;;;20.15;58.97;98949.88;219644;1276;22548;-74
2022/09/03 10:48:41;;;;;;;3.00;2.10;;;;;;;20.20;58.51;98946.98;220152;1276;24254;-76
2022/09/03 10:54:12;;;;;;;3.10;2.40;;;;;;;20.15;58.13;98936.37;220271;1276;22725;-75
2022/09/03 11:00:06;;;;;;;5.30;4.10;;;;;;;20.09;57.69;98937.67;207093;1274;1016088;-73
2022/09/03 11:05:54;;;;;;;2.90;2.10;;;;;;;20.13;58.07;98932.89;203613;1273;1016482;-72
2022/09/03 11:11:35;;;;;;;13.60;6.80;;;;;;;20.00;57.49;98929.69;220557;1273;25258;-74
2022/09/03 11:17:15;;;;;;;3.80;2.70;;;;;;;19.88;58.08;98933.16;220446;1273;22534;-76
2022/09/03 11:22:24;;;;;;;2.80;2.20;;;;;;;19.92;57.93;98932.59;220606;1273;22599;-74
2022/09/03 11:27:52;;;;;;;6.40;4.10;;;;;;;19.91;57.86;98930.60;220623;1273;25378;-73
2022/09/03 11:33:19;;;;;;;3.50;3.20;;;;;;;19.98;57.66;98930.56;220584;1273;22696;-74
2022/09/03 11:39:01;;;;;;;2.60;2.30;;;;;;;19.95;57.61;98921.08;220442;1273;23823;-74
2022/09/03 11:44:46;;;;;;;2.70;2.10;;;;;;;19.86;57.36;98917.41;220469;1273;25363;-73
2022/09/03 11:50:15;;;;;;;3.00;2.00;;;;;;;19.61;57.55;98916.46;220602;1273;22561;-77
2022/09/03 11:56:18;;;;;;;4.30;3.00;;;;;;;19.26;57.99;98911.20;220528;1273;22571;-74
2022/09/03 12:01:30;;;;;;;4.50;3.80;;;;;;;19.07;59.00;98906.05;220251;1273;22619;-74
2022/09/03 12:07:06;;;;;;;4.90;2.90;;;;;;;19.01;59.53;98901.91;220492;1273;22670;-73
2022/09/03 12:12:47;;;;;;;3.90;3.00;;;;;;;18.97;59.42;98908.80;220737;1273;25255;-74
2022/09/03 12:18:23;;;;;;;3.10;2.80;;;;;;;18.96;59.72;98916.06;220436;1273;22553;-74
2022/09/03 12:23:57;;;;;;;3.10;2.60;;;;;;;19.01;59.86;98912.92;220703;1273;22577;-76
2022/09/03 12:29:35;;;;;;;4.80;3.20;;;;;;;18.97;59.68;98910.89;220034;1276;22584;-75
2022/09/03 12:35:32;;;;;;;;;;;;;;;;;;;;;
2022/09/03 12:41:25;;;;;;;3.70;3.00;;;;;;;18.92;59.41;98901.35;219901;1276;22708;-74
2022/09/03 12:47:31;;;;;;;3.10;2.80;;;;;;;19.10;59.46;98899.71;219949;1276;24302;-76
2022/09/03 12:53:26;;;;;;;2.60;2.40;;;;;;;19.28;59.10;98891.70;220325;1273;25407;-74
2022/09/03 12:59:21;;;;;;;3.40;2.80;;;;;;;19.39;59.06;98887.05;220418;1273;25362;-73
2022/09/03 13:04:52;;;;;;;3.40;2.90;;;;;;;19.60;58.59;98896.11;117776;1273;1016716;-74
2022/09/03 13:10:08;;;;;;;3.10;2.70;;;;;;;19.61;57.65;98895.73;110156;1273;1019596;-73
2022/09/03 13:15:23;;;;;;;4.60;2.80;;;;;;;19.57;57.65;98889.51;110114;1273;1017101;-74
2022/09/03 13:21:31;;;;;;;3.80;3.20;;;;;;;19.64;57.90;98886.66;110197;1273;1016331;-73
2022/09/03 13:27:55;;;;;;;3.60;3.30;;;;;;;19.79;57.61;98886.33;109897;1273;1016687;-73
2022/09/03 13:33:58;;;;;;;3.30;2.90;;;;;;;19.90;57.65;98881.94;109522;1281;1016705;-74
2022/09/03 13:39:16;;;;;;;4.30;3.10;;;;;;;19.99;57.67;98876.14;110014;1273;1016185;-72
2022/09/03 13:45:07;;;;;;;3.10;2.80;;;;;;;20.10;57.70;98876.02;114808;1273;2529458;-73
2022/09/03 13:50:34;;;;;;;3.80;3.00;;;;;;;20.31;57.51;98874.68;110020;1273;1016343;-74
2022/09/03 13:56:34;;;;;;;3.00;2.70;;;;;;;20.48;57.18;98870.52;193344;1273;1015963;-74
2022/09/03 14:09:20;;;;;;;5.90;4.10;;;;;;;20.25;56.56;98863.64;220292;1274;22624;-74
2022/09/03 14:15:24;;;;;;;2.90;2.70;;;;;;;20.16;57.07;98867.14;219970;1271;22743;-75
2022/09/03 14:21:31;;;;;;;3.40;3.10;;;;;;;20.00;57.04;98861.71;220420;1274;25484;-74
2022/09/03 14:26:59;;;;;;;;;;;;;;;;;;;;;
2022/09/03 14:32:51;;;;;;;3.30;3.00;;;;;;;19.97;57.51;98852.55;220596;1274;22692;-74
2022/09/03 14:38:48;;;;;;;7.20;3.10;;;;;;;20.00;57.42;98854.55;196020;1279;1004986;-74
2022/09/03 14:45:06;;;;;;;3.20;2.80;;;;;;;19.92;57.46;98849.46;109956;1273;1016640;-73
2022/09/03 14:51:38;;;;;;;6.70;3.30;;;;;;;19.92;57.68;98843.95;109929;1273;1016433;-74
2022/09/03 14:57:05;;;;;;;3.00;2.70;;;;;;;20.00;57.86;98833.96;109900;1273;1016447;-74
2022/09/03 15:02:38;;;;;;;3.20;2.70;;;;;;;19.99;57.86;98829.46;184236;1273;1016337;-76
2022/09/03 15:08:48;;;;;;;4.60;3.30;;;;;;;19.97;57.72;98829.00;220256;1274;22523;-76
2022/09/03 15:14:46;;;;;;;2.90;2.50;;;;;;;19.99;58.16;98822.08;220477;1273;22561;-74
2022/09/03 15:21:10;;;;;;;3.30;2.90;;;;;;;20.13;58.29;98825.44;220439;1273;22568;-75
2022/09/03 15:27:05;;;;;;;2.90;2.40;;;;;;;20.18;57.89;98830.14;220765;1273;24277;-74
2022/09/03 15:32:40;;;;;;;3.90;2.40;;;;;;;20.08;57.81;98828.03;220574;1274;24222;-73
2022/09/03 15:38:09;;;;;;;3.00;2.70;;;;;;;19.91;58.01;98828.63;192467;1274;1017112;-74
2022/09/03 15:44:00;;;;;;;3.80;2.90;;;;;;;19.72;58.48;98826.31;220382;1273;24374;-73
2022/09/03 15:50:14;;;;;;;2.60;2.20;;;;;;;19.58;59.08;98833.02;220345;1273;23025;-74
2022/09/03 15:56:09;;;;;;;2.50;2.30;;;;;;;19.51;59.57;98830.33;220693;1273;24273;-74
2022/09/03 16:02:15;;;;;;;3.60;2.70;;;;;;;19.47;59.67;98833.40;198612;1273;1003902;-74
2022/09/03 16:07:39;;;;;;;2.80;2.30;;;;;;;19.49;59.81;98839.98;135201;1273;1016623;-73
2022/09/03 16:13:39;;;;;;;;;;;;;;;;;;;;;
2022/09/03 16:19:35;;;;;;;;;;;;;;;;;;;;;
2022/09/03 16:26:07;;;;;;;4.10;2.80;;;;;;;18.95;61.03;98849.71;220530;1273;22705;-74
2022/09/03 16:32:03;;;;;;;2.40;2.20;;;;;;;18.74;61.35;98843.06;219371;1273;1002394;-73
2022/09/03 16:37:55;;;;;;;4.10;2.70;;;;;;;18.47;62.05;98839.86;205211;1273;1018447;-74
2022/09/03 16:44:47;;;;;;;;;;;;;;;;;;;;;
2022/09/03 16:51:31;;;;;;;4.00;2.30;;;;;;;17.97;63.00;98829.42;202255;1274;1016235;-73
2022/09/03 16:58:08;;;;;;;;;;;;;;;;;;;;;
2022/09/03 17:04:11;;;;;;;4.00;2.80;;;;;;;17.56;63.92;98828.16;220887;1273;22710;-74
2022/09/03 17:11:04;;;;;;;3.80;2.90;;;;;;;17.30;64.43;98830.23;110010;1274;1016215;-74
2022/09/03 17:17:19;;;;;;;;;;;;;;;17.06;65.01;98831.70;109797;1274;1016176;-74
2022/09/03 17:23:33;;;;;;;;;;;;;;;;;;;;;
2022/09/03 17:30:50;;;;;;;;;;;;;;;;;;;;;
2022/09/03 17:36:34;;;;;;;3.20;2.90;;;;;;;16.36;66.54;98847.70;109588;1278;1016800;-74
2022/09/03 17:49:13;;;;;;;3.60;2.70;;;;;;;15.98;67.52;98855.88;110230;1274;1016474;-74
2022/09/03 17:54:57;;;;;;;3.80;3.20;;;;;;;15.81;67.98;98872.36;110001;1274;1016356;-74
2022/09/03 18:01:03;;;;;;;4.90;3.50;;;;;;;15.61;68.28;98873.48;110212;1274;1016392;-74
2022/09/03 18:06:25;;;;;;;5.20;2.90;;;;;;;15.40;68.74;98881.21;110030;1274;1016553;-74
2022/09/03 18:11:52;;;;;;;4.10;3.40;;;;;;;15.23;69.19;98881.08;110062;1273;1018643;-74
2022/09/03 18:17:52;;;;;;;4.10;3.60;;;;;;;15.07;69.71;98883.52;110239;1273;1017169;-74
2022/09/03 20:12:51;;;;;;;;;;;;;;;;;;;;;
2022/09/03 20:18:39;;;;;;;8.40;6.10;;;;;;;13.05;77.30;98888.25;109718;1274;1016760;-74
2022/09/03 20:24:23;;;;;;;6.50;5.60;;;;;;;12.96;77.67;98889.53;110043;1274;1016685;-73
2022/09/03 20:29:40;;;;;;;6.90;5.00;;;;;;;12.88;77.88;98895.70;109919;1274;1016714;-74
2022/09/03 20:36:03;;;;;;;7.40;5.20;;;;;;;12.82;78.06;98902.91;109698;1277;1016755;-74
2022/09/03 20:41:36;;;;;;;6.90;5.30;;;;;;;12.74;78.28;98902.70;109908;1277;1016510;-74
2022/09/03 20:46:52;;;;;;;8.80;5.40;;;;;;;12.69;78.70;98904.63;109789;1277;1017586;-74
2022/09/03 20:52:06;;;;;;;7.20;4.90;;;;;;;12.64;78.92;98908.70;109758;1276;1018403;-74
2022/09/03 20:57:27;;;;;;;6.90;5.60;;;;;;;12.61;79.03;98914.42;109820;1274;1018140;-74
2022/09/03 21:03:23;;;;;;;6.30;5.00;;;;;;;12.58;79.30;98916.34;110124;1274;1016243;-74
2022/09/03 21:09:17;;;;;;;9.60;5.20;;;;;;;12.54;79.52;98920.02;109764;1274;1016616;-74
2022/09/03 21:15:09;;;;;;;6.00;5.00;;;;;;;12.52;79.55;98916.42;109883;1277;1016662;-74
2022/09/03 21:21:32;;;;;;;7.40;5.10;;;;;;;12.50;79.76;98919.49;109702;1277;1016211;-74
2022/09/03 21:27:16;;;;;;;7.60;5.70;;;;;;;12.48;79.88;98916.95;109888;1277;1017988;-73
2022/09/03 21:33:13;;;;;;;5.00;4.00;;;;;;;12.46;80.10;98907.70;109894;1277;1017286;-74
2022/09/03 21:39:30;;;;;;;6.00;4.00;;;;;;;12.45;80.32;98903.48;109950;1273;1016734;-73
2022/09/03 21:45:25;;;;;;;6.60;4.90;;;;;;;12.50;80.59;98909.02;110217;1273;1016693;-74
2022/09/03 21:51:27;;;;;;;;;;;;;;;;;;;;;
2022/09/03 21:57:11;;;;;;;6.90;4.30;;;;;;;12.60;80.57;98915.40;110119;1273;1016485;-73
2022/09/03 22:02:53;;;;;;;7.70;4.70;;;;;;;12.68;80.76;98915.64;110211;1273;1017292;-73
2022/09/03 22:08:53;;;;;;;6.40;4.20;;;;;;;12.73;80.67;98920.30;110007;1273;1016475;-74
2022/09/03 22:15:05;;;;;;;;;;;;;;;;;;;;;
2022/09/03 22:21:58;;;;;;;13.30;5.20;;;;;;;12.89;80.81;98919.89;110178;1272;1016186;-73
2022/09/03 22:28:29;;;;;;;5.70;4.20;;;;;;;12.98;80.84;98915.62;110049;1273;1016647;-74
2022/09/03 22:35:17;;;;;;;9.40;4.60;;;;;;;13.13;80.89;98911.59;109912;1273;1016754;-74
2022/09/03 22:41:44;;;;;;;7.90;4.60;;;;;;;13.15;80.73;98910.96;109990;1272;1018751;-74
2022/09/03 22:48:32;;;;;;;5.70;4.30;;;;;;;13.11;80.55;98927.02;110005;1273;1016954;-73
2022/09/03 22:55:00;;;;;;;5.70;4.30;;;;;;;13.03;80.46;98933.36;109935;1273;1016706;-73
2022/09/03 23:01:34;;;;;;;;;;;;;;;;;;;;;
2022/09/03 23:08:15;;;;;;;8.40;4.90;;;;;;;12.81;80.68;98936.17;109781;1273;1016328;-74
2022/09/03 23:14:52;;;;;;;8.50;4.30;;;;;;;12.75;80.84;98932.15;110179;1271;1016702;-74
2022/09/03 23:20:34;;;;;;;;;;;;;;;;;;;;;
2022/09/03 23:27:18;;;;;;;6.00;4.40;;;;;;;12.64;80.98;98925.16;110168;1272;1016537;-73
2022/09/03 23:39:09;;;;;;;7.40;5.00;;;;;;;12.63;81.30;98928.45;109950;1274;1018855;-74
2022/09/03 23:45:34;;;;;;;10.20;5.30;;;;;;;12.58;81.09;98928.44;110053;1273;1016360;-73
2022/09/03 23:52:44;;;;;;;7.00;4.90;;;;;;;12.48;81.13;98919.53;110122;1273;1016043;-73
2022/09/03 23:59:30;;;;;;;8.20;5.10;;;;;;;12.33;81.18;98931.73;109730;1276;1016457;-74
